Meteorología y climatología de Navarra
Datos de la estación - Meteo Navarra

Estación de Urbasa GN

Altitud 886 m.


Datos desde el 10/10/2019 hasta el 11/10/2019 en horario solar
Los datos son PROVISIONALES

Anterior Página 1 de 1 Siguiente Descargar: Formato para Excel 2000 o superior   Formato csv   Formato para OpenOffice Calc
Fecha Temperatura Humedad relativa Radiación global Insolación Precipitación Vel. viento 10 m Vel. viento 10 m Dir. viento 10 m
ºC % W/m² s l/m² m/s km/h º
10/10/2019 0:00 5.6 97 0.0 0 0.0 0.1 0.3 77
10/10/2019 0:10 5.9 97 0.0 0 0.0 0.2 0.6 251
10/10/2019 0:20 5.9 97 0.0 0 0.0 0.0 0.0 0
10/10/2019 0:30 5.6 97 0.0 0 0.0 0.1 0.3 54
10/10/2019 0:40 5.3 97 0.0 0 0.0 0.4 1.5 262
10/10/2019 0:50 5.1 97 0.0 0 0.0 0.3 1.1 347
10/10/2019 1:00 4.5 97 0.0 0 0.0 0.2 0.8 173
10/10/2019 1:10 4.3 97 0.0 0 0.0 0.1 0.4 324
10/10/2019 1:20 3.9 97 0.0 0 0.0 0.4 1.4 68
10/10/2019 1:30 3.7 97 0.0 0 0.0 0.1 0.4 302
10/10/2019 1:40 3.7 97 0.0 0 0.0 0.1 0.3 255
10/10/2019 1:50 3.7 97 0.0 0 0.0 0.0 0.1 295
10/10/2019 2:00 3.9 98 0.0 0 0.0 0.1 0.5 329
10/10/2019 2:10 3.8 97 0.0 0 0.0 0.1 0.4 183
10/10/2019 2:20 3.7 97 0.0 0 0.0 0.0 0.0 1
10/10/2019 2:30 3.2 97 0.0 0 0.0 0.0 0.0 0
10/10/2019 2:40 3.0 97 0.0 0 0.0 0.0 0.0 0
10/10/2019 2:50 2.9 97 0.0 0 0.0 0.0 0.0 343
10/10/2019 3:00 2.6 97 0.0 0 0.0 0.0 0.0 0
10/10/2019 3:10 2.4 97 0.0 0 0.0 0.1 0.2 347
10/10/2019 3:20 2.1 97 0.0 0 0.0 0.0 0.0 0
10/10/2019 3:30 2.2 97 0.0 0 0.0 0.0 0.0 0
10/10/2019 3:40 2.0 97 0.0 0 0.0 0.0 0.0 0
10/10/2019 3:50 1.9 97 0.0 0 0.0 0.0 0.1 337
10/10/2019 4:00 1.6 97 0.0 0 0.0 0.1 0.3 248
10/10/2019 4:10 1.4 97 0.0 0 0.0 0.1 0.3 257
10/10/2019 4:20 1.4 97 0.0 0 0.0 0.0 0.0 0
10/10/2019 4:30 1.0 97 0.0 0 0.0 0.0 0.0 0
10/10/2019 4:40 1.1 98 0.0 0 0.0 0.2 0.5 52
10/10/2019 4:50 0.9 98 0.0 0 0.0 0.1 0.2 154
10/10/2019 5:00 1.1 98 0.0 0 0.0 0.2 0.7 11
10/10/2019 5:10 0.9 98 0.0 0 0.0 0.0 0.0 320
10/10/2019 5:20 0.6 98 0.0 0 0.0 0.1 0.2 36
10/10/2019 5:30 0.5 98 0.0 0 0.0 0.0 0.1 224
10/10/2019 5:40 0.4 98 0.0 0 0.0 0.1 0.5 240
10/10/2019 5:50 0.3 98 0.0 0 0.0 0.0 0.0 0
10/10/2019 6:00 0.2 98 0.0 0 0.0 0.0 0.0 0
10/10/2019 6:10 0.1 98 0.0 0 0.0 0.0 0.0 0
10/10/2019 6:20 0.0 98 0.0 0 0.0 0.0 0.0 0
10/10/2019 6:30 0.3 98 0.0 0 0.0 0.0 0.0 0
10/10/2019 6:40 0.0 98 7.0 0 0.0 0.0 0.0 0
10/10/2019 6:50 0.1 98 21.1 0 0.0 0.1 0.2 87
10/10/2019 7:00 0.2 98 82.4 496 0.0 0.3 1.2 93
10/10/2019 7:10 1.5 98 159.6 600 0.0 0.2 0.6 89
10/10/2019 7:20 2.2 98 166.1 600 0.0 0.0 0.0 0
10/10/2019 7:30 2.6 98 183.6 600 0.0 0.1 0.2 89
10/10/2019 7:40 3.8 98 190.3 600 0.0 0.1 0.4 65
10/10/2019 7:50 5.0 97 177.2 600 0.0 0.1 0.3 71
10/10/2019 8:00 5.8 94 185.0 600 0.0 0.2 0.7 153
10/10/2019 8:10 6.9 89 229.1 600 0.0 0.1 0.4 156
10/10/2019 8:20 8.4 86 281.2 600 0.0 0.1 0.5 169
10/10/2019 8:30 9.7 82 328.5 600 0.0 0.1 0.3 154
10/10/2019 8:40 10.1 82 368.4 600 0.0 0.4 1.4 177
10/10/2019 8:50 10.8 79 401.5 600 0.0 1.0 3.5 324
10/10/2019 9:00 10.5 79 429.9 600 0.0 1.4 5.0 304
10/10/2019 9:10 10.9 78 456.4 600 0.0 1.2 4.2 295
10/10/2019 9:20 11.0 76 483.3 600 0.0 1.5 5.3 321
10/10/2019 9:30 10.9 76 508.1 600 0.0 1.6 5.7 299
10/10/2019 9:40 11.4 75 530.8 600 0.0 1.2 4.2 291
10/10/2019 9:50 11.6 74 552.4 600 0.0 2.1 7.4 310
10/10/2019 10:00 11.6 74 573.6 600 0.0 2.0 7.1 306
10/10/2019 10:10 11.9 72 591.7 600 0.0 1.8 6.6 305
10/10/2019 10:20 12.4 69 608.3 600 0.0 1.6 5.8 305
10/10/2019 10:30 12.8 68 624.1 600 0.0 1.5 5.5 317
10/10/2019 10:40 12.7 69 639.1 600 0.0 1.9 6.9 318
10/10/2019 10:50 12.9 68 651.4 600 0.0 1.4 5.1 327
10/10/2019 11:00 13.2 68 661.8 600 0.0 1.2 4.2 332
10/10/2019 11:10 13.4 67 670.9 600 0.0 1.5 5.3 304
10/10/2019 11:20 13.6 67 678.2 600 0.0 1.8 6.3 313
10/10/2019 11:30 13.6 67 685.2 600 0.0 1.9 6.7 312
10/10/2019 11:40 14.2 66 688.3 600 0.0 1.2 4.4 339
10/10/2019 11:50 14.2 64 691.1 600 0.0 1.6 5.7 303
10/10/2019 12:00 14.6 63 692.0 600 0.0 1.9 6.8 304
10/10/2019 12:10 14.4 63 693.6 600 0.0 1.7 6.0 308
10/10/2019 12:20 14.7 62 691.5 600 0.0 1.5 5.5 313
10/10/2019 12:30 14.8 60 688.4 600 0.0 2.0 7.3 304
10/10/2019 12:40 14.8 60 683.5 600 0.0 2.0 7.2 314
10/10/2019 12:50 15.1 60 662.6 600 0.0 1.3 4.6 306
10/10/2019 13:00 15.2 58 662.8 600 0.0 1.9 6.7 294
10/10/2019 13:10 15.4 57 651.9 600 0.0 1.7 5.9 306
10/10/2019 13:20 15.4 54 640.5 600 0.0 1.6 5.8 294
10/10/2019 13:30 15.7 55 625.9 600 0.0 1.4 5.1 309
10/10/2019 13:40 15.8 55 609.6 600 0.0 1.5 5.3 307
10/10/2019 13:50 16.4 56 590.9 600 0.0 1.3 4.6 306
10/10/2019 14:00 16.1 57 572.2 600 0.0 1.6 5.9 310
10/10/2019 14:10 16.1 56 552.4 600 0.0 1.7 6.3 317
10/10/2019 14:20 16.1 57 530.5 600 0.0 1.5 5.5 317
10/10/2019 14:30 16.1 59 507.7 600 0.0 1.7 6.0 317
10/10/2019 14:40 16.2 59 482.9 600 0.0 1.7 6.0 322
10/10/2019 14:50 16.1 60 457.9 600 0.0 1.5 5.5 323
10/10/2019 15:00 16.1 60 432.2 600 0.0 1.7 6.1 320
10/10/2019 15:10 15.8 61 405.1 600 0.0 1.8 6.4 308
10/10/2019 15:20 15.8 62 376.8 600 0.0 1.6 5.8 323
10/10/2019 15:30 15.7 62 347.8 600 0.0 1.8 6.5 307
10/10/2019 15:40 15.7 63 318.2 600 0.0 1.5 5.5 331
10/10/2019 15:50 15.4 64 287.9 600 0.0 1.7 6.2 329
10/10/2019 16:00 15.4 63 256.6 600 0.0 1.4 5.0 332
10/10/2019 16:10 15.3 63 225.3 600 0.0 1.5 5.3 312
10/10/2019 16:20 15.0 65 194.5 600 0.0 1.6 5.8 314
10/10/2019 16:30 15.1 65 163.3 600 0.0 1.2 4.4 319
10/10/2019 16:40 14.8 66 132.6 600 0.0 1.1 4.1 317
10/10/2019 16:50 14.4 67 103.6 600 0.0 1.3 4.7 317
10/10/2019 17:00 13.6 71 59.5 380 0.0 1.2 4.4 328
10/10/2019 17:10 13.0 75 17.5 0 0.0 1.1 4.0 337
10/10/2019 17:20 12.6 77 1.9 0 0.0 0.8 2.9 323
10/10/2019 17:30 11.9 81 0.0 0 0.0 0.2 0.7 145
10/10/2019 17:40 11.3 84 0.0 0 0.0 0.0 0.1 120
10/10/2019 17:50 10.6 87 0.0 0 0.0 0.2 0.7 94
10/10/2019 18:00 9.9 90 0.0 0 0.0 0.4 1.4 17
10/10/2019 18:10 9.3 91 0.0 0 0.0 0.0 0.0 0
10/10/2019 18:20 9.0 92 0.0 0 0.0 0.1 0.5 335
10/10/2019 18:30 8.5 93 0.0 0 0.0 0.0 0.0 0
10/10/2019 18:40 8.2 94 0.0 0 0.0 0.0 0.1 316
10/10/2019 18:50 7.8 94 0.0 0 0.0 0.0 0.1 350
10/10/2019 19:00 7.7 95 0.0 0 0.0 0.3 0.9 304
10/10/2019 19:10 7.0 95 0.0 0 0.0 0.3 1.0 171
10/10/2019 19:20 7.1 96 0.0 0 0.0 0.0 0.0 0
10/10/2019 19:30 6.8 95 0.0 0 0.0 0.0 0.0 0
10/10/2019 19:40 6.5 96 0.0 0 0.0 0.0 0.0 0
10/10/2019 19:50 6.3 96 0.0 0 0.0 0.0 0.0 0
10/10/2019 20:00 6.1 96 0.0 0 0.0 0.0 0.0 0
10/10/2019 20:10 5.9 96 0.0 0 0.0 0.0 0.0 0
10/10/2019 20:20 5.8 96 0.0 0 0.0 0.0 0.0 186
10/10/2019 20:30 5.7 96 0.0 0 0.0 0.0 0.0 96
10/10/2019 20:40 5.3 96 0.0 0 0.0 0.0 0.0 184
10/10/2019 20:50 5.2 96 0.0 0 0.0 0.0 0.0 184
10/10/2019 21:00 5.2 97 0.0 0 0.0 0.0 0.0 152
10/10/2019 21:10 5.0 96 0.0 0 0.0 0.0 0.0 69
10/10/2019 21:20 4.8 97 0.0 0 0.0 0.0 0.0 113
10/10/2019 21:30 5.0 97 0.0 0 0.0 0.0 0.1 87
10/10/2019 21:40 4.7 97 0.0 0 0.0 0.0 0.1 82
10/10/2019 21:50 4.4 97 0.0 0 0.0 0.0 0.1 73
10/10/2019 22:00 4.4 97 0.0 0 0.0 0.0 0.0 0
10/10/2019 22:10 4.3 97 0.0 0 0.0 0.3 1.2 81
10/10/2019 22:20 4.3 97 0.0 0 0.0 0.2 0.5 103
10/10/2019 22:30 4.3 97 0.0 0 0.0 0.3 0.9 97
10/10/2019 22:40 4.1 97 0.0 0 0.0 0.3 0.9 87
10/10/2019 22:50 4.3 97 0.0 0 0.0 0.6 2.3 91
10/10/2019 23:00 4.2 97 0.0 0 0.0 0.3 0.9 72
10/10/2019 23:10 4.4 97 0.0 0 0.0 0.5 1.9 85
10/10/2019 23:20 4.6 98 0.0 0 0.0 0.4 1.3 99
10/10/2019 23:30 4.7 98 0.0 0 0.0 0.3 1.2 53
10/10/2019 23:40 4.7 97 0.0 0 0.0 0.2 0.8 48
10/10/2019 23:50 4.6 98 0.0 0 0.0 0.7 2.4 87
Anterior Página 1 de 1 Siguiente

NOTA: Tipo de datos según el color:
   - Valores diarios o 10 minutos correctos
   - Valores diarios calculados a partir de un número de datos 10 minutos menor que 144 y mayor que 120, o de un número de datos semihorarios menor que 48 y mayor que 40 (caso de las estaciones de Riegos de Navarra y del MARM)
   - Valores diez minutos estimados


Contacto        Enlaces        Aviso legal